Time;durP1;ratioP1;P1;durP2;ratioP2;P2;SDS_P1;SDS_P2;PMS_P1;PMS_P2;Temp;Humidity;BMP_temperature;BMP_pressure;BME280_temperature;BME280_humidity;BME280_pressure;Samples;Min_cycle;Max_cycle;Signal;HPM_P1;HPM_P2
2021/05/30 09:21:41;;;;;;;13.40;9.25;;;16.20;75.80;;;;;;5130812;27;20387;-82
2021/05/30 09:24:13;;;;;;;14.70;11.13;;;16.30;75.10;;;;;;5091433;27;20076;-85
2021/05/30 09:26:39;;;;;;;12.90;11.52;;;16.30;74.80;;;;;;5109764;28;20053;-84
2021/05/30 09:29:14;;;;;;;11.80;10.60;;;16.30;73.90;;;;;;5109528;28;20031;-84
2021/05/30 09:31:59;;;;;;;12.13;10.20;;;16.40;73.90;;;;;;5110900;28;20090;-83
2021/05/30 09:34:36;;;;;;;13.07;11.63;;;16.50;74.20;;;;;;5109214;28;20019;-83
2021/05/30 09:37:04;;;;;;;12.98;9.65;;;16.50;73.70;;;;;;5109677;28;20160;-84
2021/05/30 09:39:40;;;;;;;9.82;8.20;;;16.60;74.50;;;;;;5111111;28;20813;-83
2021/05/30 09:42:31;;;;;;;9.48;8.35;;;16.60;74.90;;;;;;5109272;28;20027;-84
2021/05/30 09:44:59;;;;;;;11.30;9.50;;;16.80;75.10;;;;;;5112892;27;20058;-83
2021/05/30 09:47:45;;;;;;;10.60;9.43;;;16.80;74.00;;;;;;5121104;27;20482;-84
2021/05/30 09:50:17;;;;;;;11.50;10.30;;;16.80;73.10;;;;;;5096064;28;20028;-83
2021/05/30 09:57:05;;;;;;;10.50;9.35;;;16.80;72.10;;;;;;5114014;27;20102;-92
2021/05/30 10:00:16;;;;;;;;;;;;;;;;;;;;;
2021/05/30 10:21:22;;;;;;;;;;;;;;;;;;;;;
2021/05/30 11:03:31;;;;;;;3.78;3.35;;;18.20;67.00;;;;;;4791210;29;20043;-93
2021/05/30 11:21:21;;;;;;;;;;;;;;;;;;;;;
2021/05/30 11:32:14;;;;;;;;;;;;;;;;;;;;;
2021/05/30 11:39:02;;;;;;;;;;;;;;;;;;;;;
2021/05/30 11:52:45;;;;;;;;;;;;;;;;;;;;;
2021/05/30 12:03:51;;;;;;;;;;;;;;;;;;;;;
2021/05/30 12:07:00;;;;;;;;;;;;;;;;;;;;;
2021/05/30 12:12:55;;;;;;;5.43;3.97;;;19.60;57.40;;;;;;4929685;29;20023;-83
2021/05/30 12:15:31;;;;;;;4.15;3.65;;;19.60;57.30;;;;;;4967530;28;20135;-83
2021/05/30 12:18:13;;;;;;;4.53;3.88;;;19.60;57.60;;;;;;5067759;28;20526;-83
2021/05/30 12:20:41;;;;;;;3.92;3.33;;;19.60;56.50;;;;;;5069981;28;20485;-82
2021/05/30 12:23:12;;;;;;;5.78;4.15;;;19.70;56.80;;;;;;5064005;28;20053;-81
2021/05/30 12:25:55;;;;;;;4.03;3.65;;;19.80;56.00;;;;;;5065306;28;20376;-82
2021/05/30 12:28:22;;;;;;;5.15;4.07;;;19.80;56.40;;;;;;5071057;28;20086;-83
2021/05/30 12:30:55;;;;;;;4.28;3.78;;;19.80;56.00;;;;;;5070830;28;20029;-82
2021/05/30 12:33:22;;;;;;;5.13;4.40;;;19.80;55.80;;;;;;5054781;28;20033;-82
2021/05/30 12:35:55;;;;;;;4.63;3.30;;;19.80;55.40;;;;;;5055675;28;20036;-82
2021/05/30 12:38:25;;;;;;;5.25;3.03;;;19.90;56.40;;;;;;5071947;28;20025;-82
2021/05/30 12:40:54;;;;;;;2.47;2.10;;;19.90;56.70;;;;;;5070499;28;20052;-83
2021/05/30 12:43:41;;;;;;;2.78;2.50;;;20.00;57.00;;;;;;5071021;28;20115;-82
2021/05/30 12:46:10;;;;;;;5.65;3.40;;;20.00;56.70;;;;;;5069785;28;20017;-82
2021/05/30 12:48:39;;;;;;;4.53;3.08;;;20.00;54.20;;;;;;5050517;28;20039;-82
2021/05/30 12:51:21;;;;;;;3.85;3.17;;;20.10;53.60;;;;;;5066144;28;20033;-83
2021/05/30 12:53:47;;;;;;;3.45;2.75;;;20.10;53.40;;;;;;5059456;28;20017;-82
2021/05/30 12:56:25;;;;;;;3.55;3.20;;;20.10;53.80;;;;;;5050664;28;20477;-82
2021/05/30 12:59:13;;;;;;;3.38;2.70;;;20.20;53.60;;;;;;5055083;28;20024;-82
2021/05/30 13:01:47;;;;;;;3.28;2.60;;;20.30;54.60;;;;;;5072160;28;20036;-82
2021/05/30 13:04:26;;;;;;;4.03;2.83;;;20.30;54.50;;;;;;5071303;28;20035;-82
2021/05/30 13:07:02;;;;;;;4.03;2.40;;;20.30;54.50;;;;;;5071901;28;20025;-83
2021/05/30 13:09:55;;;;;;;3.90;2.70;;;20.30;54.30;;;;;;5069863;28;20380;-82
2021/05/30 13:12:37;;;;;;;2.63;2.42;;;20.40;53.70;;;;;;5071138;28;20029;-83
2021/05/30 13:15:21;;;;;;;3.42;2.88;;;20.40;53.80;;;;;;5063108;28;20029;-82
2021/05/30 13:17:56;;;;;;;3.60;3.03;;;20.40;52.10;;;;;;5070178;28;20048;-83
2021/05/30 13:20:23;;;;;;;3.35;2.40;;;20.50;52.00;;;;;;5069937;28;20039;-82
2021/05/30 13:23:09;;;;;;;4.53;2.85;;;20.60;52.80;;;;;;5062046;28;20064;-82
2021/05/30 13:25:43;;;;;;;3.83;2.55;;;20.60;52.10;;;;;;5063307;28;20028;-82
2021/05/30 13:28:24;;;;;;;2.60;2.40;;;20.70;51.30;;;;;;5070115;28;20043;-82
2021/05/30 13:31:04;;;;;;;2.80;2.47;;;20.70;51.60;;;;;;5067144;28;20040;-82
2021/05/30 13:33:41;;;;;;;3.10;2.50;;;20.70;52.40;;;;;;5069293;28;20024;-81
2021/05/30 13:36:09;;;;;;;3.05;2.20;;;20.70;51.00;;;;;;5071716;28;20024;-80
2021/05/30 13:38:35;;;;;;;2.35;2.10;;;20.70;51.50;;;;;;5070501;28;20040;-82
2021/05/30 13:41:01;;;;;;;2.08;1.92;;;20.70;51.70;;;;;;5046044;28;20048;-83
2021/05/30 13:43:28;;;;;;;3.00;2.20;;;20.80;52.10;;;;;;5051382;28;20033;-82
2021/05/30 13:45:54;;;;;;;3.78;2.20;;;20.80;51.50;;;;;;5053477;28;20037;-83
2021/05/30 13:48:21;;;;;;;2.67;2.20;;;20.80;52.00;;;;;;5055666;28;20028;-82
2021/05/30 13:51:01;;;;;;;3.55;2.40;;;20.80;51.00;;;;;;5068518;28;20376;-82
2021/05/30 13:53:28;;;;;;;4.33;2.20;;;20.80;50.70;;;;;;5068878;28;20029;-83
2021/05/30 13:55:53;;;;;;;2.80;1.90;;;20.90;50.10;;;;;;5052251;28;20282;-80
2021/05/30 13:58:19;;;;;;;3.88;2.60;;;20.90;51.10;;;;;;5052648;28;20499;-84
2021/05/30 14:00:45;;;;;;;3.47;1.90;;;20.90;50.30;;;;;;5068518;28;20082;-81
2021/05/30 14:03:18;;;;;;;3.72;2.30;;;20.90;50.60;;;;;;5066559;28;20017;-91
2021/05/30 14:05:44;;;;;;;2.38;1.83;;;20.90;49.90;;;;;;5069968;28;20021;-82
2021/05/30 14:08:10;;;;;;;2.63;2.10;;;21.00;50.00;;;;;;5073124;28;20112;-82
2021/05/30 14:10:36;;;;;;;3.63;2.22;;;21.00;50.10;;;;;;5072753;28;20207;-82
2021/05/30 14:13:02;;;;;;;2.45;1.90;;;21.00;50.20;;;;;;5054351;28;20029;-83
2021/05/30 14:15:29;;;;;;;3.30;2.20;;;21.10;50.10;;;;;;5073475;28;20042;-81
2021/05/30 14:17:54;;;;;;;4.03;2.40;;;21.10;49.50;;;;;;5066127;28;20036;-83
2021/05/30 14:20:20;;;;;;;4.35;2.75;;;21.10;49.20;;;;;;5062928;28;20067;-83
2021/05/30 14:22:46;;;;;;;3.30;2.40;;;21.10;49.20;;;;;;5069139;28;20052;-81
2021/05/30 14:25:12;;;;;;;3.42;1.85;;;21.10;49.80;;;;;;5089550;28;20119;-81
2021/05/30 14:27:38;;;;;;;2.35;2.15;;;21.10;50.60;;;;;;5073811;28;20055;-81
2021/05/30 14:30:09;;;;;;;2.35;2.08;;;21.20;49.40;;;;;;5089787;28;20068;-81
2021/05/30 14:32:36;;;;;;;2.67;1.90;;;21.30;49.80;;;;;;5087262;28;20028;-82
2021/05/30 14:35:04;;;;;;;3.60;2.70;;;21.30;50.00;;;;;;5080921;28;20034;-83
2021/05/30 14:37:31;;;;;;;4.15;2.47;;;21.30;49.70;;;;;;5088594;28;20468;-84
2021/05/30 14:39:57;;;;;;;3.33;2.67;;;21.30;49.70;;;;;;5081393;28;20043;-82
2021/05/30 14:42:23;;;;;;;4.45;2.35;;;21.30;49.50;;;;;;5070040;28;20020;-84
2021/05/30 14:44:49;;;;;;;2.30;2.00;;;21.30;49.60;;;;;;5090336;28;20479;-82
2021/05/30 14:47:15;;;;;;;4.40;2.50;;;21.30;50.20;;;;;;5087153;28;20032;-83
2021/05/30 14:49:42;;;;;;;2.75;2.30;;;21.30;49.80;;;;;;5069571;28;20029;-82
2021/05/30 14:52:07;;;;;;;3.35;2.33;;;21.30;49.90;;;;;;5088815;28;20134;-83
2021/05/30 14:54:33;;;;;;;3.17;2.28;;;21.30;50.20;;;;;;5066782;28;20115;-83
2021/05/30 14:56:59;;;;;;;3.17;2.53;;;21.30;50.80;;;;;;5088777;28;20111;-84
2021/05/30 14:59:25;;;;;;;4.07;2.80;;;21.30;50.10;;;;;;5069926;28;20024;-83
2021/05/30 15:01:51;;;;;;;3.35;2.40;;;21.30;50.40;;;;;;5085942;28;20044;-83
2021/05/30 15:04:17;;;;;;;4.20;2.60;;;21.30;50.30;;;;;;5086450;28;20037;-83
2021/05/30 15:06:44;;;;;;;3.17;2.60;;;21.30;49.90;;;;;;5073405;28;20476;-83
2021/05/30 15:09:10;;;;;;;3.13;2.83;;;21.40;49.90;;;;;;5091211;28;20021;-83
2021/05/30 15:11:36;;;;;;;3.65;3.00;;;21.40;50.10;;;;;;5084912;28;20028;-83
2021/05/30 15:14:02;;;;;;;4.72;2.97;;;21.30;50.20;;;;;;5086307;28;20052;-82
2021/05/30 15:16:28;;;;;;;4.75;2.90;;;21.30;50.30;;;;;;5071696;28;20037;-85
2021/05/30 15:18:54;;;;;;;3.63;2.72;;;21.40;49.60;;;;;;5088590;28;20028;-83
2021/05/30 15:21:20;;;;;;;4.25;3.42;;;21.40;50.10;;;;;;5089544;28;20517;-83
2021/05/30 15:23:46;;;;;;;5.00;3.95;;;21.40;49.90;;;;;;5074959;28;20098;-83
2021/05/30 15:26:12;;;;;;;4.07;3.35;;;21.40;50.40;;;;;;5064237;28;20029;-83
2021/05/30 15:28:37;;;;;;;3.88;2.95;;;21.40;50.10;;;;;;5067439;28;20039;-82
2021/05/30 15:31:03;;;;;;;5.10;2.80;;;21.40;50.40;;;;;;5067805;28;20040;-82
2021/05/30 15:33:30;;;;;;;4.40;2.90;;;21.40;50.50;;;;;;5060859;28;20047;-83
2021/05/30 15:36:05;;;;;;;3.65;2.88;;;21.30;50.60;;;;;;5066131;28;20023;-82
2021/05/30 15:38:33;;;;;;;4.57;3.10;;;21.40;50.50;;;;;;5063372;28;20012;-82
2021/05/30 15:40:59;;;;;;;3.25;2.90;;;21.40;50.40;;;;;;5066523;28;20039;-83
2021/05/30 15:43:26;;;;;;;4.03;3.13;;;21.40;50.60;;;;;;5065838;28;20031;-83
2021/05/30 15:45:52;;;;;;;5.25;3.45;;;21.40;50.50;;;;;;5067079;28;20040;-83
2021/05/30 15:48:19;;;;;;;3.90;2.90;;;21.30;51.40;;;;;;5063467;28;20032;-84
2021/05/30 15:51:25;;;;;;;4.25;2.97;;;21.40;50.50;;;;;;5069879;28;20060;-83
2021/05/30 15:53:32;;;;;;;3.30;3.00;;;21.30;49.70;;;;;;5059918;28;20041;-82
2021/05/30 15:55:57;;;;;;;4.55;3.38;;;21.30;49.40;;;;;;5064571;28;20067;-83
2021/05/30 15:58:23;;;;;;;5.55;3.50;;;21.30;49.80;;;;;;5063245;28;20021;-83
2021/05/30 16:00:49;;;;;;;4.60;3.80;;;21.30;50.10;;;;;;5066293;28;20025;-82
2021/05/30 16:03:15;;;;;;;4.88;4.00;;;21.20;50.70;;;;;;5064572;28;20025;-85
2021/05/30 16:05:40;;;;;;;4.22;3.53;;;21.20;51.30;;;;;;5064322;28;20023;-83
2021/05/30 16:08:06;;;;;;;5.50;3.78;;;21.30;50.80;;;;;;5064036;28;20052;-82
2021/05/30 16:10:32;;;;;;;4.88;3.20;;;21.30;50.90;;;;;;5065648;28;20090;-83
2021/05/30 16:12:58;;;;;;;3.88;3.10;;;21.30;51.10;;;;;;5067973;28;20017;-84
2021/05/30 16:15:23;;;;;;;4.03;3.00;;;21.30;51.30;;;;;;5061393;28;20028;-82
2021/05/30 16:22:03;;;;;;;4.28;3.33;;;21.30;51.00;;;;;;5031514;28;20029;-82
2021/05/30 16:28:05;;;;;;;3.70;3.22;;;21.30;52.10;;;;;;4946301;28;20080;-83
2021/05/30 16:30:31;;;;;;;5.57;3.92;;;21.30;52.20;;;;;;5000113;28;20056;-83
2021/05/30 16:32:57;;;;;;;5.25;3.63;;;21.30;52.00;;;;;;5045866;28;20037;-82
2021/05/30 16:35:23;;;;;;;4.28;3.58;;;21.30;51.30;;;;;;5063661;28;20017;-82
2021/05/30 16:37:49;;;;;;;4.40;3.40;;;21.30;51.20;;;;;;5050328;28;20033;-82
2021/05/30 16:40:14;;;;;;;4.53;2.78;;;21.40;51.40;;;;;;5044198;28;20036;-82
2021/05/30 16:42:43;;;;;;;3.85;2.90;;;21.30;51.20;;;;;;5056790;28;20396;-81
2021/05/30 16:45:12;;;;;;;3.35;2.70;;;21.30;50.90;;;;;;5046363;28;20029;-82
2021/05/30 16:47:38;;;;;;;2.90;2.60;;;21.30;51.10;;;;;;5045830;28;20021;-84
2021/05/30 16:50:05;;;;;;;5.88;4.57;;;21.30;50.70;;;;;;5046477;28;20055;-82
2021/05/30 16:52:30;;;;;;;4.40;3.70;;;21.30;50.40;;;;;;5082339;28;20024;-82
2021/05/30 16:54:56;;;;;;;7.20;4.75;;;21.30;50.90;;;;;;5063586;28;20039;-81
2021/05/30 16:57:22;;;;;;;4.90;3.70;;;21.20;51.00;;;;;;5043760;28;20032;-83
2021/05/30 16:59:48;;;;;;;3.63;3.30;;;21.20;50.80;;;;;;5065087;28;20029;-82
2021/05/30 17:02:14;;;;;;;3.95;2.88;;;21.30;51.30;;;;;;5066773;28;20070;-82
2021/05/30 17:04:40;;;;;;;3.60;2.60;;;21.20;51.20;;;;;;5049381;28;20029;-82
2021/05/30 17:07:07;;;;;;;3.30;2.40;;;21.20;50.50;;;;;;5051007;28;20029;-81
2021/05/30 17:09:34;;;;;;;3.47;2.22;;;21.20;50.10;;;;;;5052708;28;20025;-82
2021/05/30 17:12:01;;;;;;;2.70;2.30;;;21.20;50.20;;;;;;5037974;28;20032;-81
2021/05/30 17:29:02;;;;;;;2.83;2.58;;;21.10;49.60;;;;;;5031867;28;20076;-87
2021/05/30 17:31:42;;;;;;;2.55;2.10;;;21.10;49.60;;;;;;5027188;28;20499;-86
2021/05/30 17:34:16;;;;;;;3.20;2.47;;;21.00;49.40;;;;;;5075792;28;20022;-87
2021/05/30 17:39:45;;;;;;;2.58;2.33;;;21.00;49.40;;;;;;5077416;28;20031;-87
2021/05/30 17:42:28;;;;;;;3.20;2.20;;;21.00;50.10;;;;;;5042894;28;20025;-86
2021/05/30 17:45:04;;;;;;;3.65;2.00;;;20.90;50.40;;;;;;5079695;28;20038;-86
2021/05/30 17:47:43;;;;;;;4.50;2.17;;;20.90;50.40;;;;;;5079284;28;20112;-86
2021/05/30 17:50:16;;;;;;;2.95;2.03;;;20.90;49.50;;;;;;5064381;28;20055;-87
2021/05/30 17:53:02;;;;;;;1.83;1.67;;;20.80;50.20;;;;;;5089087;28;20028;-86
2021/05/30 17:55:51;;;;;;;3.72;2.58;;;20.80;50.90;;;;;;5060803;28;20119;-86
